createdAt,value
2022-08-17T00:00:43.514Z,14.90
2022-08-17T00:03:17.156Z,14.90
2022-08-17T00:05:43.989Z,14.80
2022-08-17T00:08:10.532Z,14.80
2022-08-17T00:10:37.065Z,14.70
2022-08-17T00:13:03.584Z,14.70
2022-08-17T00:15:30.127Z,14.60
2022-08-17T00:17:56.694Z,14.60
2022-08-17T00:20:23.382Z,14.60
2022-08-17T00:23:01.230Z,14.50
2022-08-17T00:25:27.778Z,14.50
2022-08-17T00:27:54.323Z,14.60
2022-08-17T00:30:24.552Z,14.60
2022-08-17T00:33:12.685Z,14.60
2022-08-17T00:35:37.623Z,14.50
2022-08-17T00:38:04.186Z,14.50
2022-08-17T00:40:40.747Z,14.50
2022-08-17T00:43:11.228Z,14.40
2022-08-17T00:45:37.762Z,14.40
2022-08-17T00:48:04.289Z,14.40
2022-08-17T00:50:38.014Z,14.40
2022-08-17T00:53:04.527Z,14.30
2022-08-17T00:55:31.103Z,14.30
2022-08-17T00:57:57.658Z,14.30
2022-08-17T01:00:24.160Z,14.30
2022-08-17T01:02:50.731Z,14.20
2022-08-17T01:05:18.639Z,14.20
2022-08-17T01:07:45.410Z,14.20
2022-08-17T01:10:58.196Z,14.20
2022-08-17T01:12:58.459Z,14.20
2022-08-17T01:15:25.005Z,14.20
2022-08-17T01:17:51.508Z,14.20
2022-08-17T01:20:18.058Z,14.10
2022-08-17T01:22:44.594Z,14.10
2022-08-17T01:25:11.214Z,14.10
2022-08-17T01:27:37.766Z,14.10
2022-08-17T01:30:04.333Z,14.10
2022-08-17T01:32:50.978Z,14.10
2022-08-17T01:35:17.770Z,14.10
2022-08-17T01:37:44.279Z,14.10
2022-08-17T01:40:10.941Z,14.00
2022-08-17T01:42:37.478Z,14.00
2022-08-17T01:45:03.982Z,14.00
2022-08-17T01:47:30.544Z,13.90
2022-08-17T01:49:57.695Z,13.90
2022-08-17T01:52:24.207Z,13.90
2022-08-17T01:54:50.753Z,13.90
2022-08-17T01:57:17.291Z,13.80
2022-08-17T01:59:43.794Z,13.80
2022-08-17T02:02:10.327Z,13.80
2022-08-17T02:04:36.834Z,13.80
2022-08-17T02:07:03.329Z,13.70
2022-08-17T02:09:30.273Z,13.70
2022-08-17T02:11:56.967Z,13.70
2022-08-17T02:14:23.478Z,13.60
2022-08-17T02:16:49.979Z,13.70
2022-08-17T02:19:16.554Z,13.60
2022-08-17T02:21:43.110Z,13.60
2022-08-17T02:24:09.619Z,13.60
2022-08-17T02:26:36.163Z,13.60
2022-08-17T02:29:02.686Z,13.60
2022-08-17T02:31:29.194Z,13.50
2022-08-17T02:34:00.582Z,13.50
2022-08-17T02:36:31.434Z,13.60
2022-08-17T02:38:57.937Z,13.50
2022-08-17T02:41:24.521Z,13.50
2022-08-17T02:43:51.022Z,13.50
2022-08-17T02:46:17.558Z,13.40
2022-08-17T02:48:44.128Z,13.40
2022-08-17T02:51:10.636Z,13.40
2022-08-17T02:53:37.138Z,13.40
2022-08-17T02:56:03.667Z,13.40
2022-08-17T02:58:35.075Z,13.30
2022-08-17T03:01:02.419Z,13.30
2022-08-17T03:03:28.957Z,13.30
2022-08-17T03:05:58.278Z,13.30
2022-08-17T03:08:24.773Z,13.40
2022-08-17T03:10:51.309Z,13.40
2022-08-17T03:13:17.814Z,13.30
2022-08-17T03:15:44.515Z,13.40
2022-08-17T03:18:18.996Z,13.30
2022-08-17T03:20:51.785Z,13.30
2022-08-17T03:23:18.315Z,13.30
2022-08-17T03:25:44.866Z,13.30
2022-08-17T03:28:12.263Z,13.30
2022-08-17T03:30:38.802Z,13.30
2022-08-17T03:33:05.318Z,13.30
2022-08-17T03:35:31.885Z,13.30
2022-08-17T03:38:00.155Z,13.20
2022-08-17T03:40:55.172Z,13.20
2022-08-17T03:43:13.748Z,13.20
2022-08-17T03:45:40.315Z,13.10
2022-08-17T03:48:08.350Z,13.10
2022-08-17T03:50:34.922Z,13.00
2022-08-17T03:53:01.543Z,12.90
2022-08-17T03:55:35.757Z,12.90
2022-08-17T03:58:02.840Z,12.90
2022-08-17T04:00:29.351Z,12.80
2022-08-17T04:02:55.890Z,12.80
2022-08-17T04:05:22.431Z,12.90
2022-08-17T04:07:48.998Z,12.80
2022-08-17T04:10:15.574Z,12.80
2022-08-17T04:12:42.082Z,12.80
2022-08-17T04:15:08.668Z,12.70
2022-08-17T04:17:35.196Z,12.80
2022-08-17T04:20:01.729Z,12.80
2022-08-17T04:22:31.938Z,12.70
2022-08-17T04:25:00.666Z,12.70
2022-08-17T04:27:27.173Z,12.70
2022-08-17T04:29:54.779Z,12.80
2022-08-17T04:32:25.149Z,12.70
2022-08-17T04:35:08.958Z,12.70
2022-08-17T04:37:35.478Z,12.70
2022-08-17T04:40:04.157Z,12.80
2022-08-17T04:42:31.082Z,12.80
2022-08-17T04:44:57.577Z,12.80
2022-08-17T04:47:24.147Z,12.90
2022-08-17T04:49:50.702Z,12.90
2022-08-17T04:52:29.792Z,12.90
2022-08-17T04:55:03.746Z,13.00
2022-08-17T04:57:30.261Z,13.00
2022-08-17T05:00:06.074Z,13.00
2022-08-17T05:02:32.625Z,13.00
2022-08-17T05:04:59.143Z,13.10
2022-08-17T05:07:30.951Z,13.10
2022-08-17T05:09:58.133Z,13.10
2022-08-17T05:12:24.686Z,13.20
2022-08-17T05:14:51.216Z,13.20
2022-08-17T05:17:17.765Z,13.20
2022-08-17T05:19:47.576Z,13.30
2022-08-17T05:22:16.586Z,13.30
2022-08-17T05:24:53.833Z,13.40
2022-08-17T05:27:22.059Z,13.40
2022-08-17T05:29:50.057Z,13.50
2022-08-17T05:32:39.084Z,13.50
2022-08-17T05:35:03.110Z,13.60
2022-08-17T05:37:29.629Z,13.60
2022-08-17T05:39:56.257Z,13.70
2022-08-17T05:42:22.840Z,13.70
2022-08-17T05:44:49.342Z,13.80
2022-08-17T05:47:15.872Z,13.90
2022-08-17T05:49:42.375Z,14.00
2022-08-17T05:52:08.877Z,14.10
2022-08-17T05:54:35.453Z,14.20
2022-08-17T05:57:01.975Z,14.30
2022-08-17T05:59:28.520Z,14.40
2022-08-17T06:01:55.098Z,14.40
2022-08-17T06:04:21.635Z,14.50
2022-08-17T06:06:48.130Z,14.60
2022-08-17T06:09:14.718Z,14.70
2022-08-17T06:11:41.223Z,14.80
2022-08-17T06:14:07.764Z,14.90
2022-08-17T06:16:34.851Z,15.00
2022-08-17T06:19:01.434Z,15.10
2022-08-17T06:21:31.946Z,15.20
2022-08-17T06:24:01.758Z,15.30
2022-08-17T06:26:30.505Z,15.50
2022-08-17T06:29:06.341Z,15.60
2022-08-17T06:31:46.249Z,15.70
2022-08-17T06:34:12.845Z,15.90
2022-08-17T06:36:39.348Z,16.00
2022-08-17T06:39:05.854Z,16.10
2022-08-17T06:41:32.371Z,16.20
2022-08-17T06:43:58.908Z,16.30
2022-08-17T06:46:25.438Z,16.40
2022-08-17T06:48:51.976Z,16.50
2022-08-17T06:51:18.538Z,16.60
2022-08-17T06:53:45.098Z,16.80
2022-08-17T06:56:11.652Z,16.90
2022-08-17T06:58:38.816Z,17.10
2022-08-17T07:01:06.967Z,17.20
2022-08-17T07:03:34.325Z,17.40
2022-08-17T07:06:00.839Z,17.50
2022-08-17T07:08:30.542Z,17.70
2022-08-17T07:11:00.859Z,17.90
2022-08-17T07:13:27.369Z,18.00
2022-08-17T07:15:56.961Z,18.20
2022-08-17T07:18:23.724Z,18.40
2022-08-17T07:20:51.669Z,18.60
2022-08-17T07:23:18.262Z,18.80
2022-08-17T07:25:44.766Z,19.00
2022-08-17T07:28:11.359Z,19.10
2022-08-17T07:30:47.405Z,19.30
2022-08-17T07:33:14.371Z,19.50
2022-08-17T07:35:44.286Z,19.70
2022-08-17T07:38:24.129Z,19.90
2022-08-17T07:40:53.042Z,20.10
2022-08-17T07:43:23.124Z,20.30
2022-08-17T07:45:50.118Z,20.50
2022-08-17T07:48:16.663Z,20.70
2022-08-17T07:50:43.363Z,20.80
2022-08-17T07:53:16.274Z,21.00
2022-08-17T07:55:42.833Z,21.20
2022-08-17T07:58:09.423Z,21.30
2022-08-17T08:00:36.082Z,21.50
2022-08-17T08:03:04.769Z,21.70
2022-08-17T08:05:49.290Z,21.80
2022-08-17T08:08:17.334Z,22.00
2022-08-17T08:10:45.354Z,22.20
2022-08-17T08:13:14.222Z,22.40
2022-08-17T08:15:45.115Z,22.50
2022-08-17T08:18:53.911Z,22.50
2022-08-17T08:21:07.226Z,22.70
2022-08-17T08:23:33.739Z,22.80
2022-08-17T08:26:00.243Z,23.00
2022-08-17T08:28:26.779Z,23.10
2022-08-17T08:30:53.284Z,23.20
2022-08-17T08:33:19.804Z,23.40
2022-08-17T08:35:46.409Z,23.40
2022-08-17T08:38:12.920Z,23.60
2022-08-17T08:40:39.425Z,23.70
2022-08-17T08:43:07.167Z,23.80
2022-08-17T08:45:33.737Z,23.90
2022-08-17T08:48:05.278Z,23.90
2022-08-17T08:50:38.235Z,23.90
2022-08-17T08:53:05.178Z,24.00
2022-08-17T08:55:32.652Z,24.00
2022-08-17T08:57:59.187Z,24.00
2022-08-17T09:00:25.886Z,24.10
2022-08-17T09:02:52.506Z,24.10
2022-08-17T09:05:19.065Z,24.10
2022-08-17T09:07:45.660Z,24.20
2022-08-17T09:10:12.226Z,24.20
2022-08-17T09:12:38.719Z,24.20
2022-08-17T09:15:09.431Z,24.10
2022-08-17T09:17:38.908Z,24.20
2022-08-17T09:20:05.489Z,24.20
2022-08-17T09:22:32.014Z,24.20
2022-08-17T09:24:58.589Z,24.30
2022-08-17T09:27:25.138Z,24.40
2022-08-17T09:29:51.641Z,24.40
2022-08-17T09:32:18.392Z,24.50
2022-08-17T09:34:48.384Z,24.50
2022-08-17T09:37:15.177Z,24.50
2022-08-17T09:39:41.918Z,24.60
2022-08-17T09:42:08.555Z,24.70
2022-08-17T09:44:35.089Z,24.80
2022-08-17T09:47:01.695Z,24.80
2022-08-17T09:49:28.307Z,24.90
2022-08-17T09:51:54.906Z,25.00
2022-08-17T09:54:38.645Z,25.10
2022-08-17T09:57:28.765Z,25.20
2022-08-17T09:59:52.906Z,25.20
2022-08-17T10:02:19.499Z,25.20
2022-08-17T10:04:46.160Z,25.30
2022-08-17T10:07:12.665Z,25.40
2022-08-17T10:09:39.238Z,25.50
2022-08-17T10:12:05.750Z,25.50
2022-08-17T10:14:37.969Z,25.60
2022-08-17T10:17:09.983Z,25.70
2022-08-17T10:19:36.546Z,25.70
2022-08-17T10:22:03.183Z,25.80
2022-08-17T10:24:41.606Z,25.80
2022-08-17T10:27:28.112Z,25.90
2022-08-17T10:29:54.683Z,25.80
2022-08-17T10:32:21.261Z,25.90
2022-08-17T10:34:47.981Z,25.90
2022-08-17T10:37:14.535Z,26.00
2022-08-17T10:39:50.377Z,26.10
2022-08-17T10:42:30.466Z,26.20
2022-08-17T10:44:59.834Z,26.30
2022-08-17T10:47:26.387Z,26.40
2022-08-17T10:49:52.979Z,26.40
2022-08-17T10:52:19.537Z,26.50
2022-08-17T10:54:46.057Z,26.60
2022-08-17T10:57:12.700Z,26.60
2022-08-17T10:59:39.269Z,26.60
2022-08-17T11:02:05.826Z,26.70
2022-08-17T11:04:32.444Z,26.70
2022-08-17T11:06:58.959Z,26.70
2022-08-17T11:09:25.551Z,26.70
2022-08-17T11:11:52.093Z,26.80
2022-08-17T11:14:18.642Z,26.80
2022-08-17T11:16:45.192Z,26.90
2022-08-17T11:19:11.786Z,26.90
2022-08-17T11:21:38.314Z,27.00
2022-08-17T11:24:05.187Z,27.00
2022-08-17T11:26:31.694Z,27.10
2022-08-17T11:28:58.250Z,27.20
2022-08-17T11:31:39.336Z,27.30
2022-08-17T11:34:06.214Z,27.40
2022-08-17T11:36:32.772Z,27.50
2022-08-17T11:38:59.303Z,27.60
2022-08-17T11:41:25.808Z,27.70
2022-08-17T11:43:52.385Z,27.70
2022-08-17T11:46:18.995Z,27.70
2022-08-17T11:48:45.507Z,27.70
2022-08-17T11:51:12.078Z,27.80
2022-08-17T11:53:38.660Z,27.80
2022-08-17T11:56:05.176Z,27.80
2022-08-17T11:58:31.695Z,27.80
2022-08-17T12:00:58.303Z,27.90
2022-08-17T12:03:25.013Z,27.90
2022-08-17T12:05:51.575Z,28.00
2022-08-17T12:08:18.201Z,28.10
2022-08-17T12:10:44.704Z,28.20
2022-08-17T12:13:11.227Z,28.30
2022-08-17T12:15:38.046Z,28.50
2022-08-17T12:18:04.615Z,28.60
2022-08-17T12:20:31.217Z,28.70
2022-08-17T12:22:57.814Z,28.70
2022-08-17T12:25:24.471Z,28.80
2022-08-17T12:28:06.291Z,28.80
2022-08-17T12:30:34.045Z,28.80
2022-08-17T12:33:00.550Z,28.90
2022-08-17T12:35:27.090Z,28.90
2022-08-17T12:37:53.680Z,29.00
2022-08-17T12:40:20.188Z,29.00
2022-08-17T12:42:46.694Z,29.20
2022-08-17T12:45:13.290Z,29.20
2022-08-17T12:47:39.802Z,29.20
2022-08-17T12:50:06.378Z,29.30
2022-08-17T12:52:32.946Z,29.30
2022-08-17T12:54:59.497Z,29.30
2022-08-17T12:57:26.095Z,29.40
2022-08-17T12:59:52.616Z,29.40
2022-08-17T13:02:19.197Z,29.50
2022-08-17T13:04:45.776Z,29.50
2022-08-17T13:07:12.363Z,29.70
2022-08-17T13:09:40.395Z,29.80
2022-08-17T13:12:07.674Z,29.80
2022-08-17T13:14:34.494Z,29.80
2022-08-17T13:17:01.076Z,29.90
2022-08-17T13:19:39.829Z,30.00
2022-08-17T13:22:07.214Z,30.10
2022-08-17T13:24:38.143Z,30.30
2022-08-17T13:27:08.031Z,30.40
2022-08-17T13:29:35.107Z,30.50
2022-08-17T13:32:03.870Z,30.50
2022-08-17T13:34:31.331Z,30.50
2022-08-17T13:36:59.905Z,30.40
2022-08-17T13:39:26.504Z,30.30
2022-08-17T13:41:56.067Z,30.30
2022-08-17T13:44:22.637Z,30.40
2022-08-17T13:46:49.188Z,30.50
2022-08-17T13:49:19.036Z,30.50
2022-08-17T13:51:45.633Z,30.60
2022-08-17T13:54:12.141Z,30.70
2022-08-17T13:56:39.720Z,30.80
2022-08-17T13:59:06.382Z,30.80
2022-08-17T14:01:32.972Z,30.90
2022-08-17T14:03:59.617Z,30.90
2022-08-17T14:06:52.216Z,31.10
2022-08-17T14:09:12.689Z,31.40
2022-08-17T14:11:39.348Z,31.80
2022-08-17T14:14:05.926Z,32.10
2022-08-17T14:16:32.446Z,32.60
2022-08-17T14:18:59.058Z,33.20
2022-08-17T14:21:25.628Z,33.70
2022-08-17T14:23:54.415Z,34.20
2022-08-17T14:26:21.661Z,34.40
2022-08-17T14:28:56.357Z,34.50
2022-08-17T14:31:23.583Z,34.80
2022-08-17T14:33:50.139Z,35.10
2022-08-17T14:36:16.790Z,35.40
2022-08-17T14:38:43.428Z,35.60
2022-08-17T14:41:09.958Z,35.80
2022-08-17T14:43:36.517Z,36.00
2022-08-17T14:46:03.113Z,36.00
2022-08-17T14:48:29.650Z,36.20
2022-08-17T14:50:56.370Z,36.40
2022-08-17T14:53:22.882Z,36.60
2022-08-17T14:55:49.446Z,36.90
2022-08-17T14:58:16.032Z,37.00
2022-08-17T15:00:42.541Z,37.10
2022-08-17T15:03:09.073Z,37.20
2022-08-17T15:05:35.766Z,37.20
2022-08-17T15:08:02.283Z,37.20
2022-08-17T15:10:28.864Z,37.20
2022-08-17T15:12:55.425Z,37.20
2022-08-17T15:15:22.014Z,37.20
2022-08-17T15:17:48.580Z,37.20
2022-08-17T15:20:15.315Z,37.10
2022-08-17T15:22:42.118Z,36.80
2022-08-17T15:25:08.752Z,36.50
2022-08-17T15:27:35.312Z,36.20
2022-08-17T15:30:01.900Z,35.70
2022-08-17T15:32:28.453Z,35.30
2022-08-17T15:34:54.995Z,35.00
2022-08-17T15:37:21.557Z,34.70
2022-08-17T15:39:48.216Z,34.40
2022-08-17T15:42:14.759Z,34.00
2022-08-17T15:44:41.343Z,33.80
2022-08-17T15:47:07.938Z,33.60
2022-08-17T15:49:34.533Z,33.50
2022-08-17T15:52:01.095Z,33.30
2022-08-17T15:54:31.724Z,33.20
2022-08-17T15:57:01.153Z,33.00
2022-08-17T15:59:27.777Z,32.80
2022-08-17T16:03:15.987Z,32.70
2022-08-17T16:04:43.900Z,32.60
2022-08-17T16:07:10.761Z,32.40
2022-08-17T16:09:37.315Z,32.30
2022-08-17T16:12:03.830Z,32.30
2022-08-17T16:14:34.123Z,32.20
2022-08-17T16:17:01.821Z,32.10
2022-08-17T16:19:28.361Z,31.90
2022-08-17T16:21:54.854Z,31.90
2022-08-17T16:24:21.353Z,31.80
2022-08-17T16:26:47.975Z,31.90
2022-08-17T16:29:14.489Z,32.10
2022-08-17T16:31:40.995Z,32.20
2022-08-17T16:34:16.699Z,32.40
2022-08-17T16:36:53.712Z,32.50
2022-08-17T16:39:22.863Z,32.50
2022-08-17T16:41:49.467Z,32.50
2022-08-17T16:44:15.976Z,32.50
2022-08-17T16:46:45.525Z,32.60
2022-08-17T16:49:12.637Z,32.70
2022-08-17T16:51:56.305Z,32.50
2022-08-17T16:54:22.846Z,32.20
2022-08-17T16:56:49.404Z,31.80
2022-08-17T16:59:31.213Z,31.40
2022-08-17T17:02:02.533Z,31.00
2022-08-17T17:04:29.033Z,30.60
2022-08-17T17:07:01.750Z,30.10
2022-08-17T17:09:28.276Z,29.80
2022-08-17T17:11:54.882Z,29.60
2022-08-17T17:14:21.413Z,29.30
2022-08-17T17:16:48.058Z,29.10
2022-08-17T17:19:14.620Z,28.90
2022-08-17T17:21:41.276Z,28.70
2022-08-17T17:24:07.859Z,28.50
2022-08-17T17:26:34.451Z,28.30
2022-08-17T17:29:01.011Z,28.10
2022-08-17T17:31:27.642Z,27.90
2022-08-17T17:33:54.178Z,27.80
2022-08-17T17:36:20.737Z,27.60
2022-08-17T17:38:47.303Z,27.50
2022-08-17T17:41:13.895Z,27.30
2022-08-17T17:43:41.012Z,27.20
2022-08-17T17:46:28.681Z,27.10
2022-08-17T17:48:54.573Z,27.00
2022-08-17T17:52:09.360Z,26.90
2022-08-17T17:54:07.743Z,26.80
2022-08-17T17:56:43.099Z,26.70
2022-08-17T17:59:12.639Z,26.60
2022-08-17T18:01:39.424Z,26.50
2022-08-17T18:04:08.284Z,26.50
2022-08-17T18:06:43.630Z,26.30
2022-08-17T18:09:10.230Z,26.20
2022-08-17T18:11:37.578Z,26.10
2022-08-17T18:14:04.133Z,26.00
2022-08-17T18:16:31.984Z,25.90
2022-08-17T18:18:58.634Z,25.80
2022-08-17T18:21:25.146Z,25.70
2022-08-17T18:23:51.721Z,25.50
2022-08-17T18:26:18.223Z,25.30
2022-08-17T18:28:44.729Z,25.20
2022-08-17T18:31:11.473Z,25.10
2022-08-17T18:33:38.018Z,24.90
2022-08-17T18:36:04.530Z,24.80
2022-08-17T18:38:31.123Z,24.70
2022-08-17T18:40:57.782Z,24.50
2022-08-17T18:43:24.364Z,24.40
2022-08-17T18:45:50.879Z,24.30
2022-08-17T18:48:17.462Z,24.20
2022-08-17T18:50:43.976Z,24.10
2022-08-17T18:53:12.264Z,24.00
2022-08-17T18:55:38.921Z,23.80
2022-08-17T18:58:06.374Z,23.70
2022-08-17T19:00:32.925Z,23.60
2022-08-17T19:02:59.567Z,23.50
2022-08-17T19:05:26.156Z,23.40
2022-08-17T19:07:52.842Z,23.30
2022-08-17T19:10:19.531Z,23.20
2022-08-17T19:12:46.047Z,23.10
2022-08-17T19:15:12.850Z,23.00
2022-08-17T19:17:39.380Z,22.90
2022-08-17T19:20:05.906Z,22.80
2022-08-17T19:22:32.880Z,22.80
2022-08-17T19:25:02.620Z,22.60
2022-08-17T19:27:34.930Z,22.60
2022-08-17T19:30:08.813Z,22.50
2022-08-17T19:32:35.327Z,22.40
2022-08-17T19:35:01.871Z,22.30
2022-08-17T19:37:28.454Z,22.30
2022-08-17T19:39:55.097Z,22.20
2022-08-17T19:42:21.667Z,22.20
2022-08-17T19:44:48.183Z,22.20
2022-08-17T19:47:19.590Z,22.10
2022-08-17T19:49:57.286Z,22.10
2022-08-17T19:52:26.536Z,22.00
2022-08-17T19:54:53.057Z,22.00
2022-08-17T19:57:19.601Z,21.90
2022-08-17T19:59:46.160Z,21.90
2022-08-17T20:02:12.740Z,21.80
2022-08-17T20:04:39.279Z,21.70
2022-08-17T20:07:05.917Z,21.60
2022-08-17T20:09:33.858Z,21.50
2022-08-17T20:12:00.650Z,21.50
2022-08-17T20:14:27.226Z,21.40
2022-08-17T20:16:53.890Z,21.40
2022-08-17T20:19:20.499Z,21.30
2022-08-17T20:21:47.011Z,21.30
2022-08-17T20:24:13.530Z,21.20
2022-08-17T20:26:40.166Z,21.20
2022-08-17T20:29:14.384Z,21.20
2022-08-17T20:31:40.978Z,21.20
2022-08-17T20:34:07.487Z,21.10
2022-08-17T20:36:34.148Z,21.10
2022-08-17T20:39:00.748Z,21.10
2022-08-17T20:41:27.339Z,21.00
2022-08-17T20:43:53.925Z,21.00
2022-08-17T20:46:20.598Z,20.90
2022-08-17T20:48:47.572Z,20.90
2022-08-17T20:51:14.269Z,20.90
2022-08-17T20:53:40.819Z,20.90
2022-08-17T20:56:07.425Z,20.90
2022-08-17T20:58:34.010Z,20.90
2022-08-17T21:01:01.077Z,20.90
2022-08-17T21:03:27.632Z,20.80
2022-08-17T21:06:16.971Z,20.90
2022-08-17T21:08:45.915Z,20.80
2022-08-17T21:11:12.524Z,20.80
2022-08-17T21:13:39.045Z,20.70
2022-08-17T21:16:05.614Z,20.70
2022-08-17T21:18:32.134Z,20.70
2022-08-17T21:20:58.700Z,20.60
2022-08-17T21:23:25.207Z,20.60
2022-08-17T21:25:51.810Z,20.50
2022-08-17T21:28:18.363Z,20.50
2022-08-17T21:30:46.326Z,20.50
2022-08-17T21:33:12.867Z,20.40
2022-08-17T21:35:39.733Z,20.40
2022-08-17T21:38:06.233Z,20.30
2022-08-17T21:40:32.883Z,20.30
2022-08-17T21:42:59.478Z,20.20
2022-08-17T21:45:25.987Z,20.20
2022-08-17T21:47:52.808Z,20.20
2022-08-17T21:50:19.472Z,20.20
2022-08-17T21:52:46.072Z,20.10
2022-08-17T21:55:12.634Z,20.10
2022-08-17T21:57:39.186Z,20.00
2022-08-17T22:00:05.809Z,20.00
2022-08-17T22:02:32.327Z,20.00
2022-08-17T22:04:58.887Z,20.00
2022-08-17T22:07:25.474Z,20.00
2022-08-17T22:09:51.986Z,20.00
2022-08-17T22:12:18.551Z,20.00
2022-08-17T22:14:52.667Z,20.00
2022-08-17T22:17:20.444Z,19.90
2022-08-17T22:19:46.976Z,19.80
2022-08-17T22:22:13.535Z,19.80
2022-08-17T22:24:40.066Z,19.80
2022-08-17T22:27:06.602Z,19.70
2022-08-17T22:29:33.130Z,19.70
2022-08-17T22:31:59.626Z,19.70
2022-08-17T22:34:26.187Z,19.70
2022-08-17T22:36:52.691Z,19.70
2022-08-17T22:39:19.258Z,19.70
2022-08-17T22:41:45.850Z,19.70
2022-08-17T22:44:12.397Z,19.70
2022-08-17T22:46:38.938Z,19.70
2022-08-17T22:49:05.569Z,19.70
2022-08-17T22:51:32.070Z,19.60
2022-08-17T22:53:58.597Z,19.60
2022-08-17T22:56:25.106Z,19.60
2022-08-17T22:58:59.089Z,19.70
2022-08-17T23:01:26.044Z,19.70
2022-08-17T23:03:52.576Z,19.80
2022-08-17T23:06:19.109Z,19.80
2022-08-17T23:08:45.650Z,19.80
2022-08-17T23:11:12.204Z,19.90
2022-08-17T23:13:38.709Z,19.90
2022-08-17T23:16:05.253Z,19.90
2022-08-17T23:18:31.847Z,19.90
2022-08-17T23:20:58.357Z,20.00
2022-08-17T23:23:25.058Z,20.00
2022-08-17T23:25:51.587Z,20.10
2022-08-17T23:28:18.080Z,20.10
2022-08-17T23:30:44.594Z,20.10
2022-08-17T23:33:11.118Z,20.10
2022-08-17T23:35:39.858Z,20.10
2022-08-17T23:38:07.623Z,20.10
2022-08-17T23:40:34.186Z,20.10
2022-08-17T23:43:00.712Z,20.10
2022-08-17T23:45:31.249Z,20.10
2022-08-17T23:47:57.883Z,20.10
2022-08-17T23:50:24.446Z,20.10
2022-08-17T23:52:56.469Z,20.10
2022-08-17T23:55:23.010Z,20.00
2022-08-17T23:57:49.670Z,20.00
